Time;durP1;ratioP1;P1;durP2;ratioP2;P2;SDS_P1;SDS_P2;PMS_P1;PMS_P2;Temp;Humidity;BMP_temperature;BMP_pressure;BME280_temperature;BME280_humidity;BME280_pressure;Samples;Min_cycle;Max_cycle;Signal;HPM_P1;HPM_P2
2021/10/08 00:01:27;;;;;;;17.23;13.48;;;;;;;;;;5049357;28;20445;-49
2021/10/08 00:03:54;;;;;;;19.40;12.65;;;;;;;;;;5050809;28;20041;-52
2021/10/08 00:06:22;;;;;;;21.13;13.57;;;;;;;;;;5046727;28;20049;-52
2021/10/08 00:08:49;;;;;;;22.30;13.85;;;;;;;;;;5042192;28;20056;-50
2021/10/08 00:11:16;;;;;;;19.33;13.90;;;;;;;;;;5046453;28;20486;-48
2021/10/08 00:13:43;;;;;;;18.13;12.75;;;;;;;;;;5048007;28;20084;-48
2021/10/08 00:16:11;;;;;;;20.23;13.82;;;;;;;;;;5042326;28;20080;-48
2021/10/08 00:18:39;;;;;;;21.08;13.95;;;;;;;;;;5047334;28;20045;-53
2021/10/08 00:21:07;;;;;;;20.25;14.05;;;;;;;;;;5038440;28;20498;-48
2021/10/08 00:23:34;;;;;;;20.80;14.15;;;;;;;;;;5043809;28;20033;-48
2021/10/08 00:26:01;;;;;;;21.77;15.57;;;;;;;;;;5037322;28;20153;-49
2021/10/08 00:28:28;;;;;;;23.85;15.93;;;;;;;;;;5048741;28;20041;-48
2021/10/08 00:30:55;;;;;;;19.67;14.23;;;;;;;;;;5047762;28;20048;-50
2021/10/08 00:33:22;;;;;;;24.00;15.13;;;;;;;;;;5049400;28;20118;-47
2021/10/08 00:35:50;;;;;;;24.70;15.20;;;;;;;;;;5049360;28;20090;-49
2021/10/08 00:38:16;;;;;;;25.65;16.25;;;;;;;;;;5048823;28;20045;-45
2021/10/08 00:40:46;;;;;;;24.70;15.63;;;;;;;;;;5029730;28;20037;-44
2021/10/08 00:43:16;;;;;;;21.98;15.60;;;;;;;;;;5050883;28;20133;-45
2021/10/08 00:45:43;;;;;;;24.08;16.08;;;;;;;;;;5048944;28;20033;-44
2021/10/08 00:48:10;;;;;;;24.05;15.00;;;;;;;;;;5049126;28;20055;-45
2021/10/08 00:50:38;;;;;;;20.40;14.80;;;;;;;;;;5046344;28;20037;-46
2021/10/08 00:53:05;;;;;;;22.48;14.93;;;;;;;;;;5049478;28;20033;-46
2021/10/08 00:55:39;;;;;;;22.05;15.52;;;;;;;;;;5049664;28;20057;-48
2021/10/08 00:58:06;;;;;;;19.23;14.00;;;;;;;;;;5034814;28;20120;-50
2021/10/08 01:00:33;;;;;;;22.08;14.90;;;;;;;;;;5047333;28;20072;-46
2021/10/08 01:03:01;;;;;;;25.08;15.63;;;;;;;;;;5047464;28;20037;-48
2021/10/08 01:05:28;;;;;;;23.88;15.68;;;;;;;;;;5047963;28;20410;-47
2021/10/08 01:07:55;;;;;;;26.35;16.85;;;;;;;;;;5029926;28;20125;-49
2021/10/08 01:10:24;;;;;;;30.20;17.38;;;;;;;;;;5048503;28;20158;-47
2021/10/08 01:12:51;;;;;;;29.42;17.95;;;;;;;;;;5044490;28;20495;-51
2021/10/08 01:15:19;;;;;;;31.40;18.95;;;;;;;;;;5047155;28;20499;-47
2021/10/08 01:17:51;;;;;;;29.25;18.23;;;;;;;;;;5032992;28;20090;-45
2021/10/08 01:20:18;;;;;;;28.30;17.60;;;;;;;;;;5032576;28;20079;-46
2021/10/08 01:22:53;;;;;;;29.77;17.98;;;;;;;;;;5044707;28;20069;-49
2021/10/08 01:25:20;;;;;;;25.00;16.58;;;;;;;;;;5046093;28;20041;-47
2021/10/08 01:27:47;;;;;;;30.42;17.75;;;;;;;;;;5051576;28;20029;-47
2021/10/08 01:30:23;;;;;;;31.90;17.92;;;;;;;;;;5044404;28;20045;-47
2021/10/08 01:32:50;;;;;;;27.08;17.67;;;;;;;;;;5057678;22;20080;-47
2021/10/08 01:35:19;;;;;;;27.65;16.75;;;;;;;;;;5044582;28;20508;-46
2021/10/08 01:37:49;;;;;;;27.42;16.92;;;;;;;;;;5047134;28;20044;-47
2021/10/08 01:40:16;;;;;;;24.98;15.35;;;;;;;;;;5043511;28;20418;-48
2021/10/08 01:42:47;;;;;;;29.88;18.45;;;;;;;;;;5040687;28;20061;-48
2021/10/08 01:45:16;;;;;;;34.17;17.92;;;;;;;;;;5050908;28;20033;-46
2021/10/08 01:47:45;;;;;;;31.35;18.73;;;;;;;;;;5045632;28;20124;-50
2021/10/08 01:50:13;;;;;;;30.35;18.33;;;;;;;;;;5038518;28;20061;-49
2021/10/08 01:52:42;;;;;;;33.17;18.65;;;;;;;;;;5033167;28;20040;-51
2021/10/08 01:55:10;;;;;;;33.05;18.83;;;;;;;;;;5046617;28;20045;-48
2021/10/08 01:57:43;;;;;;;34.30;19.02;;;;;;;;;;5041129;28;20052;-49
2021/10/08 02:00:10;;;;;;;30.40;18.98;;;;;;;;;;5047367;28;20049;-47
2021/10/08 02:02:46;;;;;;;28.73;18.02;;;;;;;;;;5048215;28;20068;-49
2021/10/08 02:05:19;;;;;;;37.70;19.73;;;;;;;;;;5047477;28;20045;-46
2021/10/08 02:07:47;;;;;;;33.78;19.77;;;;;;;;;;5046954;28;20095;-48
2021/10/08 02:10:19;;;;;;;31.92;19.13;;;;;;;;;;5036456;28;20743;-52
2021/10/08 02:12:46;;;;;;;35.08;19.92;;;;;;;;;;5030785;28;20048;-47
2021/10/08 02:15:15;;;;;;;34.70;19.95;;;;;;;;;;5039340;28;20088;-50
2021/10/08 02:17:42;;;;;;;37.47;20.70;;;;;;;;;;5051122;28;20047;-48
2021/10/08 02:20:10;;;;;;;37.83;20.65;;;;;;;;;;5046877;28;20131;-49
2021/10/08 02:22:41;;;;;;;34.92;19.98;;;;;;;;;;5047026;28;20041;-51
2021/10/08 02:25:08;;;;;;;40.92;20.67;;;;;;;;;;5045289;28;20037;-47
2021/10/08 02:27:35;;;;;;;38.30;21.13;;;;;;;;;;5033735;28;20856;-51
2021/10/08 02:30:04;;;;;;;35.40;20.83;;;;;;;;;;5045300;28;20112;-50
2021/10/08 02:32:31;;;;;;;35.63;20.25;;;;;;;;;;5047021;28;20045;-47
2021/10/08 02:35:00;;;;;;;34.42;20.20;;;;;;;;;;5035466;28;20084;-48
2021/10/08 02:37:27;;;;;;;36.50;21.65;;;;;;;;;;5045528;28;20041;-47
2021/10/08 02:39:55;;;;;;;39.00;20.50;;;;;;;;;;5047605;28;20470;-50
2021/10/08 02:42:21;;;;;;;35.58;21.02;;;;;;;;;;5047156;28;20033;-48
2021/10/08 02:44:49;;;;;;;34.75;20.30;;;;;;;;;;5045930;28;20037;-48
2021/10/08 02:47:16;;;;;;;34.13;20.60;;;;;;;;;;5033787;28;20375;-47
2021/10/08 02:49:43;;;;;;;40.15;21.13;;;;;;;;;;5030859;28;20132;-51
2021/10/08 02:52:13;;;;;;;33.95;20.20;;;;;;;;;;5050905;28;20502;-48
2021/10/08 02:55:01;;;;;;;33.40;18.52;;;;;;;;;;5046067;28;21390;-51
2021/10/08 02:57:28;;;;;;;36.55;19.55;;;;;;;;;;5048008;28;20099;-51
2021/10/08 02:59:55;;;;;;;38.42;20.73;;;;;;;;;;5043161;28;20083;-51
2021/10/08 03:02:22;;;;;;;32.85;19.73;;;;;;;;;;5050045;28;20429;-51
2021/10/08 03:04:50;;;;;;;27.08;18.08;;;;;;;;;;5044071;28;20510;-48
2021/10/08 03:07:17;;;;;;;33.08;19.50;;;;;;;;;;5040630;28;20053;-50
2021/10/08 03:09:44;;;;;;;30.05;17.73;;;;;;;;;;5045858;28;20053;-47
2021/10/08 03:12:11;;;;;;;31.27;17.95;;;;;;;;;;5028611;28;20067;-48
2021/10/08 03:14:39;;;;;;;32.15;18.67;;;;;;;;;;5044255;28;20076;-50
2021/10/08 03:17:06;;;;;;;29.20;19.00;;;;;;;;;;5046630;28;20044;-50
2021/10/08 03:19:35;;;;;;;31.35;18.30;;;;;;;;;;5047376;28;20048;-47
2021/10/08 03:22:02;;;;;;;31.27;20.38;;;;;;;;;;5032403;28;20057;-47
2021/10/08 03:24:30;;;;;;;34.38;19.42;;;;;;;;;;5025313;28;20048;-47
2021/10/08 03:27:00;;;;;;;29.85;18.65;;;;;;;;;;5039615;28;20102;-49
2021/10/08 03:29:28;;;;;;;29.98;18.75;;;;;;;;;;5042346;28;20051;-46
2021/10/08 03:31:56;;;;;;;31.38;20.27;;;;;;;;;;5045966;28;20044;-49
2021/10/08 03:34:23;;;;;;;28.17;18.92;;;;;;;;;;5064436;28;20498;-49
2021/10/08 03:36:53;;;;;;;28.60;18.40;;;;;;;;;;5031941;28;20056;-47
2021/10/08 03:39:23;;;;;;;25.83;17.52;;;;;;;;;;5045379;28;20535;-49
2021/10/08 03:41:53;;;;;;;25.63;16.65;;;;;;;;;;5046128;28;20595;-50
2021/10/08 03:44:21;;;;;;;23.20;16.52;;;;;;;;;;5048059;28;20056;-48
2021/10/08 03:46:53;;;;;;;26.27;16.83;;;;;;;;;;5045654;28;20378;-47
2021/10/08 03:49:24;;;;;;;26.40;15.80;;;;;;;;;;5030481;28;20152;-48
2021/10/08 03:51:52;;;;;;;25.63;15.98;;;;;;;;;;5044631;28;20041;-49
2021/10/08 03:54:20;;;;;;;25.08;17.02;;;;;;;;;;5045222;28;20053;-51
2021/10/08 03:56:48;;;;;;;24.27;16.02;;;;;;;;;;5041150;28;20045;-45
2021/10/08 03:59:15;;;;;;;22.02;14.77;;;;;;;;;;5044385;28;20059;-49
2021/10/08 04:01:47;;;;;;;22.95;15.32;;;;;;;;;;5027793;28;20049;-48
2021/10/08 04:04:14;;;;;;;23.13;15.10;;;;;;;;;;5045675;28;20048;-48
2021/10/08 04:06:43;;;;;;;21.60;15.82;;;;;;;;;;5047732;28;20052;-49
2021/10/08 04:09:10;;;;;;;23.48;15.50;;;;;;;;;;5044430;28;20048;-49
2021/10/08 04:11:41;;;;;;;24.70;15.73;;;;;;;;;;5049121;28;20124;-49
2021/10/08 04:14:09;;;;;;;24.08;15.18;;;;;;;;;;5061594;28;20052;-47
2021/10/08 04:16:38;;;;;;;19.92;14.40;;;;;;;;;;5047006;28;20132;-51
2021/10/08 04:19:06;;;;;;;20.80;14.77;;;;;;;;;;5041774;28;20075;-49
2021/10/08 04:21:34;;;;;;;21.58;15.55;;;;;;;;;;5049763;28;20053;-49
2021/10/08 04:24:03;;;;;;;23.05;15.25;;;;;;;;;;5031820;28;20621;-49
2021/10/08 04:26:31;;;;;;;21.23;14.65;;;;;;;;;;5030352;28;20061;-47
2021/10/08 04:28:59;;;;;;;22.40;14.50;;;;;;;;;;5045603;28;20564;-47
2021/10/08 04:31:29;;;;;;;20.85;14.30;;;;;;;;;;5045268;28;20052;-49
2021/10/08 04:33:56;;;;;;;18.98;14.68;;;;;;;;;;5049878;28;20068;-52
2021/10/08 04:36:24;;;;;;;22.88;14.77;;;;;;;;;;5027639;28;20468;-48
2021/10/08 04:38:54;;;;;;;23.90;15.95;;;;;;;;;;5029826;28;20415;-48
2021/10/08 04:41:21;;;;;;;23.83;15.85;;;;;;;;;;5043558;28;20080;-48
2021/10/08 04:43:49;;;;;;;21.17;14.63;;;;;;;;;;5049086;28;20409;-52
2021/10/08 04:46:17;;;;;;;21.50;15.40;;;;;;;;;;5048282;28;20041;-53
2021/10/08 04:48:45;;;;;;;21.77;15.10;;;;;;;;;;5046444;28;20071;-47
2021/10/08 04:51:14;;;;;;;23.73;15.45;;;;;;;;;;5047562;28;20405;-50
2021/10/08 04:53:41;;;;;;;21.95;15.00;;;;;;;;;;5013298;28;20049;-46
2021/10/08 04:56:09;;;;;;;23.27;15.68;;;;;;;;;;5040393;28;20052;-47
2021/10/08 04:58:38;;;;;;;24.30;15.88;;;;;;;;;;5022761;28;20106;-47
2021/10/08 05:01:05;;;;;;;25.65;15.80;;;;;;;;;;5046723;28;20350;-44
2021/10/08 05:03:34;;;;;;;22.13;14.40;;;;;;;;;;5039534;28;20068;-48
2021/10/08 05:06:02;;;;;;;20.15;14.57;;;;;;;;;;5038056;28;20146;-48
2021/10/08 05:08:35;;;;;;;19.98;14.00;;;;;;;;;;5029456;28;20095;-45
2021/10/08 05:11:03;;;;;;;24.48;15.65;;;;;;;;;;5048622;28;20568;-47
2021/10/08 05:13:31;;;;;;;21.95;14.55;;;;;;;;;;5042836;28;20045;-48
2021/10/08 05:15:59;;;;;;;19.38;14.85;;;;;;;;;;5039834;28;20341;-46
2021/10/08 05:18:27;;;;;;;22.73;14.70;;;;;;;;;;5032975;28;20135;-46
2021/10/08 05:20:55;;;;;;;20.27;14.13;;;;;;;;;;5052017;28;20073;-49
2021/10/08 05:23:24;;;;;;;22.20;15.40;;;;;;;;;;5049089;28;20516;-44
2021/10/08 05:25:52;;;;;;;25.77;15.27;;;;;;;;;;5048620;28;20467;-47
2021/10/08 05:28:20;;;;;;;22.35;14.93;;;;;;;;;;5048475;28;20123;-45
2021/10/08 05:30:49;;;;;;;23.73;15.43;;;;;;;;;;5047340;28;20049;-44
2021/10/08 05:33:17;;;;;;;23.05;14.73;;;;;;;;;;5034941;28;20099;-48
2021/10/08 05:35:47;;;;;;;23.27;15.90;;;;;;;;;;5052185;28;20068;-43
2021/10/08 05:38:16;;;;;;;23.08;15.10;;;;;;;;;;5037101;28;20063;-46
2021/10/08 05:40:47;;;;;;;25.73;16.23;;;;;;;;;;5047424;28;20164;-47
2021/10/08 05:43:17;;;;;;;23.17;15.00;;;;;;;;;;5031756;28;20045;-45
2021/10/08 05:45:50;;;;;;;22.02;15.52;;;;;;;;;;5034015;28;20499;-45
2021/10/08 05:48:19;;;;;;;22.05;16.27;;;;;;;;;;5044529;28;20037;-44
2021/10/08 05:50:47;;;;;;;23.60;15.73;;;;;;;;;;5047237;28;20041;-45
2021/10/08 05:53:16;;;;;;;22.77;16.42;;;;;;;;;;5049010;28;20086;-44
2021/10/08 05:55:44;;;;;;;22.83;16.25;;;;;;;;;;5047175;28;20049;-45
2021/10/08 05:58:11;;;;;;;23.55;16.15;;;;;;;;;;5034691;28;20478;-45
2021/10/08 06:00:38;;;;;;;27.02;16.73;;;;;;;;;;5047062;28;20044;-45
2021/10/08 06:03:06;;;;;;;22.98;15.82;;;;;;;;;;5034232;28;20048;-45
2021/10/08 06:05:38;;;;;;;27.73;17.63;;;;;;;;;;5050709;28;20055;-45
2021/10/08 06:08:07;;;;;;;33.40;18.85;;;;;;;;;;5047655;28;20033;-45
2021/10/08 06:10:42;;;;;;;27.95;18.55;;;;;;;;;;5047901;28;20033;-49
2021/10/08 06:13:11;;;;;;;26.38;18.92;;;;;;;;;;5042214;28;20052;-46
2021/10/08 06:15:40;;;;;;;29.17;19.13;;;;;;;;;;5062147;28;20498;-47
2021/10/08 06:18:09;;;;;;;31.90;19.80;;;;;;;;;;5039041;28;20052;-46
2021/10/08 06:20:39;;;;;;;31.80;18.35;;;;;;;;;;5043994;28;20418;-47
2021/10/08 06:23:11;;;;;;;30.98;18.95;;;;;;;;;;5037936;28;20534;-51
2021/10/08 06:25:39;;;;;;;32.08;19.15;;;;;;;;;;5041513;28;20050;-50
2021/10/08 06:28:08;;;;;;;34.05;20.35;;;;;;;;;;5024199;28;20056;-53
2021/10/08 06:30:36;;;;;;;33.45;19.98;;;;;;;;;;5031521;28;20037;-45
2021/10/08 06:33:03;;;;;;;33.10;19.83;;;;;;;;;;5050230;28;20029;-45
2021/10/08 06:35:32;;;;;;;31.58;20.13;;;;;;;;;;5036852;28;20053;-47
2021/10/08 06:38:01;;;;;;;32.95;21.00;;;;;;;;;;5046458;28;20037;-45
2021/10/08 06:40:30;;;;;;;33.83;20.25;;;;;;;;;;5049277;28;20549;-45
2021/10/08 06:43:04;;;;;;;33.25;20.15;;;;;;;;;;5031125;28;20331;-49
2021/10/08 06:45:47;;;;;;;33.83;21.60;;;;;;;;;;5044241;28;20492;-46
2021/10/08 06:48:16;;;;;;;33.50;20.02;;;;;;;;;;5034958;28;20445;-46
2021/10/08 06:50:46;;;;;;;38.22;21.23;;;;;;;;;;5046101;28;21076;-50
2021/10/08 06:53:15;;;;;;;31.98;19.48;;;;;;;;;;5046845;28;20131;-50
2021/10/08 06:55:43;;;;;;;32.60;20.67;;;;;;;;;;5044476;28;20386;-49
2021/10/08 06:58:12;;;;;;;38.67;21.73;;;;;;;;;;5043180;28;20540;-53
2021/10/08 07:00:41;;;;;;;34.65;21.38;;;;;;;;;;5030006;28;20052;-47
2021/10/08 07:03:10;;;;;;;35.53;20.13;;;;;;;;;;5025207;28;20076;-51
2021/10/08 07:05:40;;;;;;;34.67;20.80;;;;;;;;;;5027764;28;20044;-50
2021/10/08 07:08:08;;;;;;;40.40;21.52;;;;;;;;;;5038108;28;20044;-48
2021/10/08 07:10:38;;;;;;;38.22;21.48;;;;;;;;;;5040025;28;20124;-51
2021/10/08 07:13:06;;;;;;;35.72;20.77;;;;;;;;;;5041081;28;20112;-49
2021/10/08 07:15:33;;;;;;;36.50;21.05;;;;;;;;;;5041231;28;20048;-51
2021/10/08 07:18:00;;;;;;;34.15;20.55;;;;;;;;;;5042307;28;20136;-46
2021/10/08 07:20:28;;;;;;;37.42;20.80;;;;;;;;;;5040415;28;20055;-46
2021/10/08 07:22:56;;;;;;;40.58;22.50;;;;;;;;;;5041480;28;20041;-50
2021/10/08 07:25:24;;;;;;;37.65;20.65;;;;;;;;;;5041299;28;20045;-51
2021/10/08 07:27:51;;;;;;;44.60;22.02;;;;;;;;;;5041934;28;20049;-50
2021/10/08 07:30:19;;;;;;;45.00;21.77;;;;;;;;;;5044800;28;20041;-55
2021/10/08 07:32:50;;;;;;;40.58;20.70;;;;;;;;;;5039262;28;20045;-49
2021/10/08 07:35:17;;;;;;;46.40;22.10;;;;;;;;;;5042980;28;20127;-50
2021/10/08 07:37:44;;;;;;;41.85;21.73;;;;;;;;;;5050252;22;20453;-47
2021/10/08 07:40:12;;;;;;;45.28;21.05;;;;;;;;;;5027747;28;20059;-48
2021/10/08 07:42:39;;;;;;;42.30;21.65;;;;;;;;;;5023307;28;20084;-47
2021/10/08 07:45:07;;;;;;;42.42;20.75;;;;;;;;;;5023307;28;20407;-45
2021/10/08 07:47:35;;;;;;;43.35;21.75;;;;;;;;;;5026197;28;20136;-46
2021/10/08 07:50:03;;;;;;;40.47;21.52;;;;;;;;;;5025027;28;20041;-49
2021/10/08 07:52:30;;;;;;;39.63;20.58;;;;;;;;;;5024283;28;20049;-47
2021/10/08 07:54:57;;;;;;;48.17;21.25;;;;;;;;;;5011983;28;20537;-51
2021/10/08 07:57:25;;;;;;;44.95;21.25;;;;;;;;;;5029828;28;20041;-48
2021/10/08 07:59:52;;;;;;;38.45;20.08;;;;;;;;;;5026565;28;20061;-48
2021/10/08 08:02:19;;;;;;;41.35;22.15;;;;;;;;;;5024225;28;20132;-47
2021/10/08 08:04:46;;;;;;;38.20;20.65;;;;;;;;;;5025041;28;20052;-49
2021/10/08 08:07:13;;;;;;;43.80;22.13;;;;;;;;;;5024063;28;20071;-52
2021/10/08 08:09:39;;;;;;;37.83;19.60;;;;;;;;;;5024754;28;20491;-48
2021/10/08 08:12:06;;;;;;;37.22;20.17;;;;;;;;;;5025233;28;20747;-46
2021/10/08 08:14:33;;;;;;;34.63;18.23;;;;;;;;;;5024941;28;20087;-47
2021/10/08 08:17:00;;;;;;;38.72;20.48;;;;;;;;;;5038132;28;20041;-49
2021/10/08 08:19:27;;;;;;;35.95;19.50;;;;;;;;;;5025943;28;20140;-49
2021/10/08 08:21:54;;;;;;;39.22;21.15;;;;;;;;;;5023825;28;20124;-51
2021/10/08 08:24:20;;;;;;;36.78;19.90;;;;;;;;;;5023331;28;20049;-45
2021/10/08 08:26:47;;;;;;;43.53;20.27;;;;;;;;;;5022644;28;20041;-49
2021/10/08 08:29:14;;;;;;;38.38;19.38;;;;;;;;;;5026830;28;20679;-51
2021/10/08 08:31:41;;;;;;;38.78;18.83;;;;;;;;;;5025057;28;20056;-46
2021/10/08 08:34:08;;;;;;;35.97;19.08;;;;;;;;;;5028252;28;20044;-46
2021/10/08 08:36:35;;;;;;;35.38;18.63;;;;;;;;;;5029084;28;20034;-47
2021/10/08 08:39:07;;;;;;;35.47;18.70;;;;;;;;;;5027861;28;20391;-47
2021/10/08 08:41:34;;;;;;;33.92;18.08;;;;;;;;;;5028097;28;20068;-45
2021/10/08 08:44:02;;;;;;;36.72;19.23;;;;;;;;;;5035065;28;20525;-46
2021/10/08 08:46:29;;;;;;;34.67;17.88;;;;;;;;;;5029305;28;20129;-51
2021/10/08 08:48:56;;;;;;;34.45;18.80;;;;;;;;;;5029225;28;20437;-49
2021/10/08 08:51:25;;;;;;;30.85;17.80;;;;;;;;;;5027757;28;20132;-49
2021/10/08 08:53:57;;;;;;;35.40;18.38;;;;;;;;;;5028547;28;20044;-53
2021/10/08 08:56:28;;;;;;;29.80;17.98;;;;;;;;;;5030862;28;20079;-54
2021/10/08 08:58:59;;;;;;;26.20;16.20;;;;;;;;;;5028878;28;20103;-52
2021/10/08 09:01:26;;;;;;;29.80;18.20;;;;;;;;;;5030305;28;20132;-53
2021/10/08 09:04:01;;;;;;;32.15;17.35;;;;;;;;;;5030570;28;20053;-52
2021/10/08 09:06:36;;;;;;;28.70;17.23;;;;;;;;;;5011510;28;20045;-54
2021/10/08 09:09:16;;;;;;;31.45;17.98;;;;;;;;;;5011984;28;20046;-49
2021/10/08 09:11:43;;;;;;;24.98;15.27;;;;;;;;;;5011695;28;20407;-50
2021/10/08 09:14:21;;;;;;;28.70;17.27;;;;;;;;;;5022937;28;20045;-53
2021/10/08 09:17:06;;;;;;;26.25;15.15;;;;;;;;;;5024932;28;20091;-53
2021/10/08 09:19:50;;;;;;;26.85;16.55;;;;;;;;;;5016611;28;20046;-51
2021/10/08 09:22:18;;;;;;;24.95;15.77;;;;;;;;;;5011518;28;20044;-52
2021/10/08 09:24:45;;;;;;;25.02;15.23;;;;;;;;;;5016008;28;20041;-53
2021/10/08 09:27:14;;;;;;;21.90;14.88;;;;;;;;;;5024969;28;20140;-54
2021/10/08 09:29:52;;;;;;;22.92;14.65;;;;;;;;;;5022020;28;20054;-51
2021/10/08 09:32:20;;;;;;;22.55;14.98;;;;;;;;;;5030488;28;20085;-53
2021/10/08 09:34:47;;;;;;;23.00;14.07;;;;;;;;;;5029024;28;20106;-50
2021/10/08 09:37:16;;;;;;;23.70;14.48;;;;;;;;;;5030707;28;20167;-52
2021/10/08 09:39:47;;;;;;;22.73;14.40;;;;;;;;;;5015403;28;20095;-48
2021/10/08 09:42:15;;;;;;;21.27;14.07;;;;;;;;;;5031116;28;20045;-48
2021/10/08 09:44:47;;;;;;;20.42;13.25;;;;;;;;;;5029935;28;20042;-48
2021/10/08 09:47:16;;;;;;;19.05;12.27;;;;;;;;;;5029964;28;20038;-48
2021/10/08 09:49:44;;;;;;;19.25;12.25;;;;;;;;;;5031026;28;20403;-49
2021/10/08 09:52:27;;;;;;;16.70;11.40;;;;;;;;;;5030745;28;20040;-50
2021/10/08 09:54:55;;;;;;;17.02;11.20;;;;;;;;;;5031850;28;20059;-51
2021/10/08 09:57:22;;;;;;;19.98;11.85;;;;;;;;;;5019557;28;20136;-48
2021/10/08 09:59:50;;;;;;;17.80;11.75;;;;;;;;;;5025561;28;20121;-48
2021/10/08 10:02:17;;;;;;;16.15;11.80;;;;;;;;;;5017508;28;20048;-48
2021/10/08 10:04:45;;;;;;;17.63;12.27;;;;;;;;;;5033789;28;20132;-53
2021/10/08 10:07:16;;;;;;;15.70;11.57;;;;;;;;;;5030666;28;20133;-52
2021/10/08 10:09:43;;;;;;;14.73;10.23;;;;;;;;;;5034379;28;20042;-48
2021/10/08 10:12:32;;;;;;;12.98;9.68;;;;;;;;;;5033762;28;20052;-52
2021/10/08 10:14:59;;;;;;;13.93;9.68;;;;;;;;;;5029294;28;20073;-49
2021/10/08 10:17:26;;;;;;;13.63;9.52;;;;;;;;;;5033976;28;20132;-48
2021/10/08 10:19:54;;;;;;;12.52;9.38;;;;;;;;;;5033852;28;20497;-52
2021/10/08 10:22:21;;;;;;;11.13;8.93;;;;;;;;;;5026199;28;20052;-45
2021/10/08 10:24:51;;;;;;;11.68;9.13;;;;;;;;;;5032247;28;20071;-46
2021/10/08 10:27:17;;;;;;;11.80;9.10;;;;;;;;;;5032708;28;20539;-45
2021/10/08 10:29:46;;;;;;;12.15;8.18;;;;;;;;;;5025134;28;20423;-43
2021/10/08 10:32:13;;;;;;;11.05;9.05;;;;;;;;;;5027378;28;20128;-50
2021/10/08 10:34:41;;;;;;;12.75;8.93;;;;;;;;;;5032137;28;20041;-48
2021/10/08 10:37:08;;;;;;;11.57;9.15;;;;;;;;;;5031672;28;20046;-47
2021/10/08 10:39:35;;;;;;;10.07;7.63;;;;;;;;;;5023074;28;20040;-45
2021/10/08 10:42:02;;;;;;;10.07;7.88;;;;;;;;;;5032555;28;20049;-45
2021/10/08 10:44:37;;;;;;;9.88;8.15;;;;;;;;;;5013230;28;20089;-44
2021/10/08 10:47:23;;;;;;;10.80;7.28;;;;;;;;;;5026663;28;20108;-44
2021/10/08 10:50:11;;;;;;;10.55;7.63;;;;;;;;;;5027560;28;20519;-44
2021/10/08 10:52:52;;;;;;;10.27;7.93;;;;;;;;;;5022849;28;20470;-46
2021/10/08 10:55:20;;;;;;;11.48;8.73;;;;;;;;;;5028503;28;20052;-44
2021/10/08 10:57:48;;;;;;;11.38;8.35;;;;;;;;;;5032485;28;20046;-44
2021/10/08 11:00:15;;;;;;;10.52;8.55;;;;;;;;;;5020966;28;20483;-46
2021/10/08 11:02:42;;;;;;;13.02;8.30;;;;;;;;;;5025464;28;20053;-47
2021/10/08 11:05:22;;;;;;;11.25;7.40;;;;;;;;;;5030587;28;20037;-44
2021/10/08 11:08:05;;;;;;;6.85;5.28;;;;;;;;;;5030820;28;20057;-44
2021/10/08 11:10:32;;;;;;;6.50;4.85;;;;;;;;;;5032134;28;20057;-45
2021/10/08 11:13:18;;;;;;;7.20;5.22;;;;;;;;;;5032837;28;20037;-47
2021/10/08 11:15:52;;;;;;;6.85;5.15;;;;;;;;;;5028879;28;20099;-47
2021/10/08 11:18:49;;;;;;;7.63;5.20;;;;;;;;;;5028807;28;20069;-46
2021/10/08 11:21:25;;;;;;;8.48;5.72;;;;;;;;;;5018075;28;20053;-47
2021/10/08 11:24:11;;;;;;;9.75;6.93;;;;;;;;;;5016279;28;20038;-47
2021/10/08 11:26:38;;;;;;;8.77;6.28;;;;;;;;;;5021816;28;20520;-45
2021/10/08 11:29:05;;;;;;;11.50;7.75;;;;;;;;;;5029077;28;20061;-47
2021/10/08 11:31:32;;;;;;;11.88;7.47;;;;;;;;;;5031568;28;20043;-45
2021/10/08 11:33:59;;;;;;;11.52;8.32;;;;;;;;;;5031150;28;20037;-45
2021/10/08 11:36:29;;;;;;;10.18;6.95;;;;;;;;;;5030835;28;20155;-47
2021/10/08 11:39:10;;;;;;;13.50;8.00;;;;;;;;;;5030248;28;20093;-45
2021/10/08 11:41:37;;;;;;;10.85;7.88;;;;;;;;;;5031307;28;20498;-46
2021/10/08 11:44:06;;;;;;;9.20;7.15;;;;;;;;;;5030492;28;20728;-47
2021/10/08 11:46:54;;;;;;;14.68;8.15;;;;;;;;;;5018435;28;20040;-45
2021/10/08 11:51:59;;;;;;;9.35;7.30;;;;;;;;;;5030490;28;20057;-47
2021/10/08 11:54:26;;;;;;;10.50;8.07;;;;;;;;;;5027241;28;20112;-47
2021/10/08 11:57:00;;;;;;;10.80;8.43;;;;;;;;;;5031857;28;20037;-48
2021/10/08 11:59:27;;;;;;;9.57;7.72;;;;;;;;;;5025196;28;20052;-47
2021/10/08 12:02:15;;;;;;;10.77;7.90;;;;;;;;;;5027707;28;20407;-46
2021/10/08 12:04:58;;;;;;;12.25;9.32;;;;;;;;;;5028544;28;20051;-49
2021/10/08 12:07:25;;;;;;;11.40;8.00;;;;;;;;;;5031984;28;20079;-48
2021/10/08 12:10:08;;;;;;;11.65;8.55;;;;;;;;;;5019651;28;20048;-48
2021/10/08 12:12:35;;;;;;;;;;;;;;;;;;5023768;28;20052;-47
2021/10/08 12:15:07;;;;;;;10.80;8.07;;;;;;;;;;5017564;28;20357;-47
2021/10/08 12:17:35;;;;;;;12.15;9.18;;;;;;;;;;5030992;28;20045;-49
2021/10/08 12:20:16;;;;;;;11.50;8.88;;;;;;;;;;5027277;28;20057;-46
2021/10/08 12:22:43;;;;;;;13.18;9.00;;;;;;;;;;5030902;28;20087;-46
2021/10/08 12:25:10;;;;;;;13.75;9.55;;;;;;;;;;5030346;28;20045;-48
2021/10/08 12:27:37;;;;;;;12.27;9.38;;;;;;;;;;5029161;28;20037;-47
2021/10/08 12:30:04;;;;;;;12.63;9.23;;;;;;;;;;5027104;28;20497;-47
2021/10/08 12:32:31;;;;;;;12.90;9.32;;;;;;;;;;5028897;28;20045;-50
2021/10/08 12:34:58;;;;;;;12.48;9.50;;;;;;;;;;5027230;28;20986;-47
2021/10/08 12:37:29;;;;;;;13.85;9.75;;;;;;;;;;5031098;28;20139;-48
2021/10/08 12:40:12;;;;;;;18.83;10.75;;;;;;;;;;5025926;28;20124;-46
2021/10/08 12:42:39;;;;;;;14.30;10.50;;;;;;;;;;5022103;28;20144;-44
2021/10/08 12:45:20;;;;;;;14.10;10.23;;;;;;;;;;5030236;28;20049;-44
2021/10/08 12:47:48;;;;;;;17.00;10.93;;;;;;;;;;5028202;28;20044;-44
2021/10/08 12:50:34;;;;;;;14.27;10.43;;;;;;;;;;5031372;28;20050;-46
2021/10/08 12:53:00;;;;;;;16.75;10.27;;;;;;;;;;5031769;28;20073;-44
2021/10/08 12:55:30;;;;;;;14.20;10.45;;;;;;;;;;5027482;28;20038;-50
2021/10/08 12:58:01;;;;;;;15.88;10.98;;;;;;;;;;5011738;28;20065;-48
2021/10/08 13:00:45;;;;;;;14.95;10.75;;;;;;;;;;5011795;28;20069;-43
2021/10/08 13:03:29;;;;;;;15.07;10.75;;;;;;;;;;5011449;28;20045;-47
2021/10/08 13:05:56;;;;;;;16.25;11.20;;;;;;;;;;5014554;28;20050;-55
2021/10/08 13:08:22;;;;;;;12.63;9.48;;;;;;;;;;5028627;28;20137;-49
2021/10/08 13:10:57;;;;;;;14.75;10.50;;;;;;;;;;5032274;28;20038;-47
2021/10/08 13:13:29;;;;;;;13.10;10.20;;;;;;;;;;5030860;28;20045;-45
2021/10/08 13:15:56;;;;;;;12.15;9.68;;;;;;;;;;5029473;28;20084;-48
2021/10/08 13:18:23;;;;;;;13.52;10.75;;;;;;;;;;5028880;28;20502;-46
2021/10/08 13:20:51;;;;;;;12.75;9.98;;;;;;;;;;5029209;28;20525;-46
2021/10/08 13:23:19;;;;;;;11.93;10.10;;;;;;;;;;5026370;28;20060;-45
2021/10/08 13:25:47;;;;;;;12.45;9.75;;;;;;;;;;5029692;28;20044;-49
2021/10/08 13:28:14;;;;;;;23.77;11.63;;;;;;;;;;5011252;28;20037;-47
2021/10/08 13:30:46;;;;;;;15.88;10.18;;;;;;;;;;5028954;28;20049;-50
2021/10/08 13:33:15;;;;;;;17.73;11.43;;;;;;;;;;5033236;28;20038;-46
2021/10/08 13:35:42;;;;;;;16.02;10.77;;;;;;;;;;5033317;28;20042;-50
2021/10/08 13:38:09;;;;;;;13.93;10.00;;;;;;;;;;5031652;28;20388;-46
2021/10/08 13:40:36;;;;;;;15.20;11.57;;;;;;;;;;5031541;28;20048;-46
2021/10/08 13:43:02;;;;;;;13.65;10.43;;;;;;;;;;5033328;28;20433;-47
2021/10/08 13:45:30;;;;;;;16.23;10.45;;;;;;;;;;5031398;28;20045;-44
2021/10/08 13:47:57;;;;;;;14.80;10.60;;;;;;;;;;5019522;28;20062;-43
2021/10/08 13:50:24;;;;;;;16.00;11.02;;;;;;;;;;5034574;28;20144;-43
2021/10/08 13:52:50;;;;;;;13.63;10.65;;;;;;;;;;5033811;28;20116;-44
2021/10/08 13:55:17;;;;;;;13.73;10.15;;;;;;;;;;5032527;28;20044;-45
2021/10/08 13:57:44;;;;;;;14.60;10.13;;;;;;;;;;5022131;28;20123;-44
2021/10/08 14:00:11;;;;;;;12.70;9.50;;;;;;;;;;5014535;28;20053;-46
2021/10/08 14:02:49;;;;;;;13.95;10.00;;;;;;;;;;5022245;28;20099;-44
2021/10/08 14:06:05;;;;;;;13.85;11.13;;;;;;;;;;5033745;28;20069;-45
2021/10/08 14:10:54;;;;;;;15.18;10.65;;;;;;;;;;5014500;28;20076;-45
2021/10/08 14:13:21;;;;;;;14.80;10.55;;;;;;;;;;5026199;28;20570;-46
2021/10/08 14:15:48;;;;;;;16.20;11.05;;;;;;;;;;5034328;28;20052;-45
2021/10/08 14:18:15;;;;;;;17.00;12.48;;;;;;;;;;5024627;28;20256;-44
2021/10/08 14:20:41;;;;;;;21.38;11.13;;;;;;;;;;5014017;28;20436;-47
2021/10/08 14:23:09;;;;;;;19.85;11.20;;;;;;;;;;5024052;28;20045;-44
2021/10/08 14:25:36;;;;;;;16.90;10.95;;;;;;;;;;5025473;28;20053;-47
2021/10/08 14:28:03;;;;;;;14.85;10.52;;;;;;;;;;5022483;28;20068;-45
2021/10/08 14:30:31;;;;;;;16.63;11.30;;;;;;;;;;5032373;28;20041;-45
2021/10/08 14:32:58;;;;;;;29.58;12.00;;;;;;;;;;5033461;28;20045;-46
2021/10/08 14:35:25;;;;;;;23.30;12.07;;;;;;;;;;5034387;28;20129;-44
2021/10/08 14:37:52;;;;;;;22.80;12.43;;;;;;;;;;5032124;28;20042;-46
2021/10/08 14:40:19;;;;;;;17.25;11.27;;;;;;;;;;5033438;28;20049;-46